1875 Tropical Storm NOT_NAMED (1875259N33318)


IBTrACS version v04r00. Visit IBTrACS website for data access.
Please direct all questions to the IBTrACS Q and A forum

Storm track - Intensity - Wind Radii - Intensity Data - Source Data - All data

Summary Information

Storm ID 1875259N33318
Start Sep 15 12Z
Max Intensity 50 kt (Sep 17 00Z)
End Sep 21 12Z
ATCF IDs
Track status Best track data.

Storm track plot

Map of storm track

Intensity plots

Map of storm track

Radial wind information

No radial wind information for this storm


Position and Intensity Table

BASIN ISO_TIME_________ NATURE LAT LON MLC WIND
degrees north degrees east kts
NA 1875-09-15 12:00:00 TS 32.50 -42.00 35
NA 15:00:00 TS 32.70 -41.79 35
NA 18:00:00 TS 32.90 -41.60 35
NA 21:00:00 TS 33.10 -41.44 37
NA 1875-09-16 00:00:00 TS 33.30 -41.30 40
NA 03:00:00 TS 33.51 -41.15 40
NA 06:00:00 TS 33.70 -41.00 40
NA 09:00:00 TS 33.83 -40.85 42
NA 12:00:00 TS 34.00 -40.70 45
NA 15:00:00 TS 34.29 -40.54 45
NA 18:00:00 TS 34.60 -40.40 45
NA 21:00:00 TS 34.85 -40.29 47
NA 1875-09-17 00:00:00 TS 35.10 -40.20 50
NA 03:00:00 TS 35.40 -40.10 50
NA 06:00:00 TS 35.70 -40.00 50
NA 09:00:00 TS 35.94 -39.89 50
NA 12:00:00 TS 36.20 -39.80 50
NA 15:00:00 TS 36.53 -39.74 50
NA 18:00:00 TS 36.90 -39.70 50
NA 21:00:00 TS 37.25 -39.68 47
NA 1875-09-18 00:00:00 TS 37.60 -39.60 45
NA 03:00:00 TS 37.95 -39.38 45
NA 06:00:00 TS 38.30 -39.10 45
NA 09:00:00 TS 38.69 -38.87 45
NA 12:00:00 TS 39.00 -38.60 45
NA 15:00:00 TS 39.14 -38.23 45
NA 18:00:00 TS 39.20 -37.80 45
NA 21:00:00 TS 39.30 -37.35 45
NA 1875-09-19 00:00:00 TS 39.40 -36.90 45
NA 03:00:00 TS 39.50 -36.49 45
NA 06:00:00 TS 39.60 -36.10 45
NA 09:00:00 TS 39.71 -35.70 45
NA 12:00:00 TS 39.80 -35.30 45
NA 15:00:00 TS 39.86 -34.90 45
NA 18:00:00 TS 39.90 -34.50 45
NA 21:00:00 TS 39.95 -34.10 45
NA 1875-09-20 00:00:00 TS 40.00 -33.70 45
NA 03:00:00 TS 40.06 -33.30 45
NA 06:00:00 ET 40.10 -32.90 45
NA 09:00:00 ET 40.08 -32.54 45
NA 12:00:00 ET 40.10 -32.10 45
NA 15:00:00 ET 40.28 -31.45 45
NA 18:00:00 ET 40.50 -30.70 45
NA 21:00:00 ET 40.65 -30.00 45
NA 1875-09-21 00:00:00 ET 40.80 -29.30 45
NA 03:00:00 ET 41.00 -28.60 45
NA 06:00:00 TS 41.20 -27.90 45
NA 09:00:00 TS 41.36 -27.20 45
NA 12:00:00 ET 41.50 -26.50 45

Source Information

Agency Information
USA
TOKYO
CMA
HKO
NEWDELHI
REUNION
BOM
NADI
WELLINGTON
DS824
TD9636
TD9635
NEUMANN
MLC

All available IBTrACS Data

SEASON BASIN SUBBASIN ISO_TIME_________ NATURE LAT LON DIST2LAND LANDFALL IFLAG USA SSHS MLC LAT MLC LON MLC CLASS MLC WIND STORM SPEED STORM DIR
Year degrees north degrees east km km 1 degrees north degrees east kts kts degrees
1875 NA NA 1875-09-15 12:00:00 TS 32.50 -42.00 1834 1823 _____________O -1 32.50 -42.00 TS 35 5 42
1875 NA NA 15:00:00 TS 32.70 -41.79 1823 1812 _____________P -1 32.70 -41.79 TS 35 5 40
1875 NA NA 18:00:00 TS 32.90 -41.60 1812 1798 _____________O -1 32.90 -41.60 TS 35 5 36
1875 NA NA 21:00:00 TS 33.10 -41.44 1802 1788 _____________P -1 33.10 -41.44 TS 37 5 32
1875 NA NA 1875-09-16 00:00:00 TS 33.30 -41.30 1788 1773 _____________O -1 33.30 -41.30 TS 40 5 31
1875 NA NA 03:00:00 TS 33.51 -41.15 1778 1764 _____________P -1 33.51 -41.15 TS 40 5 32
1875 NA NA 06:00:00 TS 33.70 -41.00 1764 1759 _____________O -1 33.70 -41.00 TS 40 4 38
1875 NA NA 09:00:00 TS 33.83 -40.85 1764 1751 _____________P -1 33.83 -40.85 TS 42 4 40
1875 NA NA 12:00:00 TS 34.00 -40.70 1751 1728 _____________O -1 34.00 -40.70 TS 45 5 29
1875 NA NA 15:00:00 TS 34.29 -40.54 1733 1711 _____________P -1 34.29 -40.54 TS 45 7 22
1875 NA NA 18:00:00 TS 34.60 -40.40 1711 1698 _____________O -1 34.60 -40.40 TS 45 6 20
1875 NA NA 21:00:00 TS 34.85 -40.29 1698 1676 _____________P -1 34.85 -40.29 TS 47 5 18
1875 NA NA 1875-09-17 00:00:00 TS 35.10 -40.20 1676 1654 _____________O -1 35.10 -40.20 TS 50 6 16
1875 NA NA 03:00:00 TS 35.40 -40.10 1654 1633 _____________P -1 35.40 -40.10 TS 50 6 15
1875 NA NA 06:00:00 TS 35.70 -40.00 1633 1622 _____________O -1 35.70 -40.00 TS 50 6 17
1875 NA NA 09:00:00 TS 35.94 -39.89 1622 1601 _____________P -1 35.94 -39.89 TS 50 5 18
1875 NA NA 12:00:00 TS 36.20 -39.80 1601 1576 _____________O -1 36.20 -39.80 TS 50 6 11
1875 NA NA 15:00:00 TS 36.53 -39.74 1581 1548 _____________P -1 36.53 -39.74 TS 50 7 6
1875 NA NA 18:00:00 TS 36.90 -39.70 1548 1523 _____________O -1 36.90 -39.70 TS 50 7 5
1875 NA NA 21:00:00 TS 37.25 -39.68 1523 1496 _____________P -1 37.25 -39.68 TS 47 7 6
1875 NA NA 1875-09-18 00:00:00 TS 37.60 -39.60 1496 1479 _____________O -1 37.60 -39.60 TS 45 7 19
1875 NA NA 03:00:00 TS 37.95 -39.38 1477 1472 _____________P -1 37.95 -39.38 TS 45 8 29
1875 NA NA 06:00:00 TS 38.30 -39.10 1472 1454 _____________O -1 38.30 -39.10 TS 45 8 28
1875 NA NA 09:00:00 TS 38.69 -38.87 1454 1445 _____________P -1 38.69 -38.87 TS 45 8 29
1875 NA NA 12:00:00 TS 39.00 -38.60 1451 1450 _____________O -1 39.00 -38.60 TS 45 7 48
1875 NA NA 15:00:00 TS 39.14 -38.23 1470 1463 _____________P -1 39.14 -38.23 TS 45 7 72
1875 NA NA 18:00:00 TS 39.20 -37.80 1489 1489 _____________O -1 39.20 -37.80 TS 45 7 77
1875 NA NA 21:00:00 TS 39.30 -37.35 1515 1515 _____________P -1 39.30 -37.35 TS 45 7 74
1875 NA NA 1875-09-19 00:00:00 TS 39.40 -36.90 1536 1536 _____________O -1 39.40 -36.90 TS 45 7 73
1875 NA NA 03:00:00 TS 39.50 -36.49 1556 1556 _____________P -1 39.50 -36.49 TS 45 6 72
1875 NA NA 06:00:00 TS 39.60 -36.10 1577 1577 _____________O -1 39.60 -36.10 TS 45 6 71
1875 NA NA 09:00:00 TS 39.71 -35.70 1598 1598 _____________P -1 39.71 -35.70 TS 45 6 72
1875 NA NA 12:00:00 TS 39.80 -35.30 1620 1620 _____________O -1 39.80 -35.30 TS 45 6 76
1875 NA NA 15:00:00 TS 39.86 -34.90 1642 1642 _____________P -1 39.86 -34.90 TS 45 6 81
1875 NA NA 18:00:00 TS 39.90 -34.50 1670 1670 _____________O -1 39.90 -34.50 TS 45 6 81
1875 NA NA 21:00:00 TS 39.95 -34.10 1699 1692 _____________P -1 39.95 -34.10 TS 45 6 81
1875 NA NA 1875-09-20 00:00:00 TS 40.00 -33.70 1720 1720 _____________O -1 40.00 -33.70 TS 45 6 80
1875 NA NA 03:00:00 TS 40.06 -33.30 1742 1742 _____________P -1 40.06 -33.30 TS 45 6 81
1875 NA NA 06:00:00 ET 40.10 -32.90 1770 1770 _____________O -1 40.10 -32.90 EX 45 6 88
1875 NA NA 09:00:00 ET 40.08 -32.54 1798 1798 _____________P -1 40.08 -32.54 EX 45 6 90
1875 NA NA 12:00:00 ET 40.10 -32.10 1826 1826 _____________O -1 40.10 -32.10 EX 45 9 77
1875 NA NA 15:00:00 ET 40.28 -31.45 1848 1785 _____________P -1 40.28 -31.45 EX 45 11 69
1875 NA NA 18:00:00 ET 40.50 -30.70 1785 1725 _____________O -1 40.50 -30.70 EX 45 12 71
1875 NA NA 21:00:00 ET 40.65 -30.00 1725 1663 _____________P -1 40.65 -30.00 EX 45 11 74
1875 NA NA 1875-09-21 00:00:00 ET 40.80 -29.30 1663 1601 _____________O -1 40.80 -29.30 EX 45 11 72
1875 NA NA 03:00:00 ET 41.00 -28.60 1601 1538 _____________P -1 41.00 -28.60 EX 45 11 69
1875 NA NA 06:00:00 TS 41.20 -27.90 1538 1477 _____________O -1 41.20 -27.90 TS 45 11 71
1875 NA NA 09:00:00 TS 41.36 -27.20 1477 1417 _____________P -1 41.36 -27.20 TS 45 11 74
1875 NA NA 12:00:00 ET 41.50 -26.50 1417 _____________O -1 41.50 -26.50 EX 45 11 75